Time;durP1;ratioP1;P1;durP2;ratioP2;P2;SDS_P1;SDS_P2;PMS_P1;PMS_P2;Temp;Humidity;BMP_temperature;BMP_pressure;BME280_temperature;BME280_humidity;BME280_pressure;Samples;Min_cycle;Max_cycle;Signal;HPM_P1;HPM_P2
2024/03/30 00:01:40;;;;;;;18.83;17.93;;;;;;;;;;5104499;28;20629;-72
2024/03/30 00:04:06;;;;;;;19.60;18.70;;;;;;;;;;5101444;28;20551;-70
2024/03/30 00:06:33;;;;;;;18.53;17.63;;;;;;;;;;5106101;28;20468;-71
2024/03/30 00:08:59;;;;;;;18.90;18.00;;;;;;;;;;5099580;28;20476;-71
2024/03/30 00:11:28;;;;;;;17.93;17.13;;;;;;;;;;5105806;28;20975;-72
2024/03/30 00:13:54;;;;;;;18.27;17.37;;;;;;;;;;5107207;28;20485;-69
2024/03/30 00:16:22;;;;;;;19.30;18.30;;;;;;;;;;5102006;28;20462;-69
2024/03/30 00:18:48;;;;;;;19.13;18.23;;;;;;;;;;5108201;28;20488;-70
2024/03/30 00:21:18;;;;;;;18.37;17.53;;;;;;;;;;5102719;28;20459;-69
2024/03/30 00:23:47;;;;;;;17.93;17.13;;;;;;;;;;5098159;28;20826;-70
2024/03/30 00:26:17;;;;;;;18.10;17.30;;;;;;;;;;5103610;28;20502;-70
2024/03/30 00:28:45;;;;;;;18.97;18.17;;;;;;;;;;5099998;28;20465;-71
2024/03/30 00:31:12;;;;;;;17.93;17.13;;;;;;;;;;5108572;28;20542;-71
2024/03/30 00:33:38;;;;;;;18.43;17.63;;;;;;;;;;5102700;28;20471;-71
2024/03/30 00:36:05;;;;;;;18.40;17.60;;;;;;;;;;5104428;28;20462;-70
2024/03/30 00:38:32;;;;;;;18.50;17.70;;;;;;;;;;5099408;28;20499;-70
2024/03/30 00:40:59;;;;;;;18.17;17.37;;;;;;;;;;5104766;28;21072;-70
2024/03/30 00:43:25;;;;;;;18.60;17.80;;;;;;;;;;5111747;28;20458;-70
2024/03/30 00:45:53;;;;;;;18.27;17.47;;;;;;;;;;5103477;28;20468;-70
2024/03/30 00:48:19;;;;;;;18.47;17.67;;;;;;;;;;5109453;28;20497;-71
2024/03/30 00:50:47;;;;;;;18.37;17.57;;;;;;;;;;5104431;28;20933;-68
2024/03/30 00:53:13;;;;;;;18.33;17.53;;;;;;;;;;5103306;28;20462;-69
2024/03/30 00:55:40;;;;;;;19.67;18.77;;;;;;;;;;5088005;28;20486;-68
2024/03/30 00:58:07;;;;;;;18.77;17.97;;;;;;;;;;5073192;28;20858;-68
2024/03/30 01:00:34;;;;;;;18.47;17.67;;;;;;;;;;5072392;28;20869;-68
2024/03/30 01:03:01;;;;;;;18.33;17.53;;;;;;;;;;5075225;28;20463;-71
2024/03/30 01:05:29;;;;;;;18.57;17.77;;;;;;;;;;5074046;28;20614;-70
2024/03/30 01:07:55;;;;;;;18.37;17.57;;;;;;;;;;5075120;28;20485;-72
2024/03/30 01:10:22;;;;;;;19.03;18.23;;;;;;;;;;5073992;28;21041;-69
2024/03/30 01:12:49;;;;;;;19.00;18.20;;;;;;;;;;5075762;28;20502;-69
2024/03/30 01:15:16;;;;;;;18.90;18.10;;;;;;;;;;5073074;28;20906;-68
2024/03/30 01:17:43;;;;;;;18.60;17.80;;;;;;;;;;5074777;28;20496;-68
2024/03/30 01:20:12;;;;;;;19.70;18.80;;;;;;;;;;5074426;28;20511;-69
2024/03/30 01:22:38;;;;;;;18.47;17.67;;;;;;;;;;5075019;28;20454;-68
2024/03/30 01:25:06;;;;;;;19.13;18.23;;;;;;;;;;5074118;28;20474;-69
2024/03/30 01:27:33;;;;;;;19.60;18.70;;;;;;;;;;5073976;28;20466;-68
2024/03/30 01:30:03;;;;;;;18.80;18.00;;;;;;;;;;5074875;28;20477;-69
2024/03/30 01:32:29;;;;;;;18.87;17.97;;;;;;;;;;5074188;28;20482;-69
2024/03/30 01:34:56;;;;;;;18.70;17.80;;;;;;;;;;5072347;28;20480;-68
2024/03/30 01:37:24;;;;;;;18.20;17.40;;;;;;;;;;5074689;28;20485;-69
2024/03/30 01:39:51;;;;;;;19.00;18.20;;;;;;;;;;5073572;28;21121;-67
2024/03/30 01:42:17;;;;;;;18.67;17.87;;;;;;;;;;5072659;28;21451;-68
2024/03/30 01:44:44;;;;;;;17.87;17.17;;;;;;;;;;5073654;28;20918;-69
2024/03/30 01:47:11;;;;;;;19.90;19.10;;;;;;;;;;5071516;28;20462;-67
2024/03/30 01:49:38;;;;;;;19.47;18.67;;;;;;;;;;5069121;28;20467;-72
2024/03/30 01:52:04;;;;;;;19.30;18.50;;;;;;;;;;5073015;28;20468;-71
2024/03/30 01:54:33;;;;;;;19.37;18.57;;;;;;;;;;5076902;28;20887;-71
2024/03/30 01:57:00;;;;;;;19.97;19.13;;;;;;;;;;5106227;28;20465;-70
2024/03/30 01:59:28;;;;;;;20.03;19.13;;;;;;;;;;5109350;28;20458;-70
2024/03/30 02:01:55;;;;;;;20.13;19.33;;;;;;;;;;5109712;28;20465;-70
2024/03/30 02:04:24;;;;;;;19.30;18.50;;;;;;;;;;5102273;28;20471;-70
2024/03/30 02:06:51;;;;;;;19.93;19.13;;;;;;;;;;5109494;28;20459;-71
2024/03/30 02:09:18;;;;;;;20.20;19.40;;;;;;;;;;5107328;28;20676;-71
2024/03/30 02:11:46;;;;;;;20.50;19.70;;;;;;;;;;5106303;28;20470;-71
2024/03/30 02:14:13;;;;;;;20.40;19.60;;;;;;;;;;5101342;28;20462;-70
2024/03/30 02:16:40;;;;;;;20.20;19.40;;;;;;;;;;5110356;27;20818;-70
2024/03/30 02:19:07;;;;;;;19.27;18.47;;;;;;;;;;5110450;28;20579;-71
2024/03/30 02:21:33;;;;;;;19.73;18.93;;;;;;;;;;5108761;28;20476;-71
2024/03/30 02:24:02;;;;;;;19.67;18.87;;;;;;;;;;5105491;28;20471;-70
2024/03/30 02:26:30;;;;;;;19.97;19.17;;;;;;;;;;5103354;28;20470;-72
2024/03/30 02:28:57;;;;;;;20.57;19.77;;;;;;;;;;5106091;28;20550;-70
2024/03/30 02:31:23;;;;;;;19.83;19.03;;;;;;;;;;5106212;28;20457;-71
2024/03/30 02:33:50;;;;;;;19.63;18.83;;;;;;;;;;5109609;28;20470;-70
2024/03/30 02:36:19;;;;;;;20.13;19.33;;;;;;;;;;5109432;28;20540;-71
2024/03/30 02:38:47;;;;;;;20.83;20.03;;;;;;;;;;5100691;28;21027;-70
2024/03/30 02:41:14;;;;;;;19.40;18.70;;;;;;;;;;5104232;28;20465;-71
2024/03/30 02:43:41;;;;;;;19.50;18.80;;;;;;;;;;5105291;28;20852;-71
2024/03/30 02:46:08;;;;;;;20.60;19.80;;;;;;;;;;5106152;28;20893;-70
2024/03/30 02:48:35;;;;;;;20.60;19.80;;;;;;;;;;5106086;28;20462;-70
2024/03/30 02:51:01;;;;;;;19.73;19.03;;;;;;;;;;5098277;28;20550;-71
2024/03/30 02:53:28;;;;;;;19.90;19.20;;;;;;;;;;5103014;28;20983;-71
2024/03/30 02:55:54;;;;;;;20.83;20.03;;;;;;;;;;5104341;28;20823;-70
2024/03/30 02:58:23;;;;;;;21.20;20.40;;;;;;;;;;5107674;28;20947;-70
2024/03/30 03:00:49;;;;;;;21.30;20.50;;;;;;;;;;5104354;28;20470;-70
2024/03/30 03:03:16;;;;;;;20.07;19.37;;;;;;;;;;5104916;28;20515;-70
2024/03/30 03:05:42;;;;;;;21.40;20.60;;;;;;;;;;5102403;28;20657;-70
2024/03/30 03:08:10;;;;;;;20.93;20.13;;;;;;;;;;5105361;28;20570;-71
2024/03/30 03:10:36;;;;;;;21.30;20.50;;;;;;;;;;5100963;28;20470;-71
2024/03/30 03:13:03;;;;;;;21.13;20.33;;;;;;;;;;5096425;27;20495;-72
2024/03/30 03:15:30;;;;;;;21.87;21.07;;;;;;;;;;5109715;28;20459;-70
2024/03/30 03:17:57;;;;;;;19.93;19.23;;;;;;;;;;5107387;28;20503;-71
2024/03/30 03:20:24;;;;;;;21.53;20.73;;;;;;;;;;5103639;28;20469;-69
2024/03/30 03:22:51;;;;;;;21.77;20.97;;;;;;;;;;5104480;28;20478;-71
2024/03/30 03:25:18;;;;;;;21.50;20.70;;;;;;;;;;5110090;28;20957;-70
2024/03/30 03:27:45;;;;;;;21.67;20.87;;;;;;;;;;5098639;28;20475;-71
2024/03/30 03:30:11;;;;;;;20.23;19.53;;;;;;;;;;5108216;28;20464;-71
2024/03/30 03:32:40;;;;;;;20.60;19.90;;;;;;;;;;5106542;28;20470;-71
2024/03/30 03:35:06;;;;;;;20.53;19.83;;;;;;;;;;5113374;27;20469;-70
2024/03/30 03:37:33;;;;;;;20.30;19.60;;;;;;;;;;5097229;28;20878;-70
2024/03/30 03:39:59;;;;;;;21.77;20.97;;;;;;;;;;5108488;28;20696;-70
2024/03/30 03:42:27;;;;;;;21.60;20.80;;;;;;;;;;5096754;28;20459;-71
2024/03/30 03:44:54;;;;;;;19.97;19.27;;;;;;;;;;5108472;28;20481;-72
2024/03/30 03:47:21;;;;;;;21.33;20.63;;;;;;;;;;5101221;28;20453;-70
2024/03/30 03:49:49;;;;;;;21.47;20.70;;;;;;;;;;5102309;28;20828;-69
2024/03/30 03:52:16;;;;;;;21.57;20.87;;;;;;;;;;5106292;28;20556;-70
2024/03/30 03:54:42;;;;;;;22.77;21.97;;;;;;;;;;5100313;28;20460;-70
2024/03/30 03:57:10;;;;;;;21.30;20.60;;;;;;;;;;5107351;28;20462;-70
2024/03/30 03:59:36;;;;;;;22.90;22.10;;;;;;;;;;5095932;28;20486;-71
2024/03/30 04:02:03;;;;;;;21.83;21.07;;;;;;;;;;5108830;28;20767;-72
2024/03/30 04:04:29;;;;;;;22.33;21.53;;;;;;;;;;5103107;28;20453;-71
2024/03/30 04:06:59;;;;;;;22.27;21.47;;;;;;;;;;5105699;28;20463;-72
2024/03/30 04:09:25;;;;;;;21.83;21.03;;;;;;;;;;5102484;28;20478;-70
2024/03/30 04:11:52;;;;;;;21.67;20.87;;;;;;;;;;5105979;28;20590;-70
2024/03/30 04:14:18;;;;;;;20.67;19.97;;;;;;;;;;5109074;28;20659;-72
2024/03/30 04:16:45;;;;;;;22.67;21.87;;;;;;;;;;5103543;27;20516;-71
2024/03/30 04:19:17;;;;;;;21.17;20.40;;;;;;;;;;5106180;28;20494;-71
2024/03/30 04:21:44;;;;;;;21.40;20.60;;;;;;;;;;5102312;28;20459;-72
2024/03/30 04:24:12;;;;;;;21.13;20.43;;;;;;;;;;5102283;28;20473;-71
2024/03/30 04:26:39;;;;;;;22.17;21.37;;;;;;;;;;5099667;28;20539;-71
2024/03/30 04:29:05;;;;;;;22.60;21.80;;;;;;;;;;5107649;28;20461;-72
2024/03/30 04:31:33;;;;;;;22.20;21.40;;;;;;;;;;5103717;28;20458;-70
2024/03/30 04:33:59;;;;;;;22.40;21.60;;;;;;;;;;5101705;28;20854;-70
2024/03/30 04:36:27;;;;;;;20.77;20.07;;;;;;;;;;5105851;28;20489;-69
2024/03/30 04:38:54;;;;;;;21.13;20.40;;;;;;;;;;5100753;28;20485;-72
2024/03/30 04:41:23;;;;;;;22.20;21.40;;;;;;;;;;5105857;28;20453;-70
2024/03/30 04:43:50;;;;;;;22.17;21.37;;;;;;;;;;5093281;28;20977;-70
2024/03/30 04:46:16;;;;;;;22.07;21.27;;;;;;;;;;5101295;28;20866;-70
2024/03/30 04:48:45;;;;;;;20.73;20.03;;;;;;;;;;5107942;28;21044;-71
2024/03/30 04:51:11;;;;;;;21.20;20.50;;;;;;;;;;5099348;28;20546;-71
2024/03/30 04:53:38;;;;;;;22.30;21.50;;;;;;;;;;5107040;28;20627;-72
2024/03/30 04:56:06;;;;;;;20.77;20.07;;;;;;;;;;5107922;28;20828;-71
2024/03/30 04:58:34;;;;;;;20.93;20.23;;;;;;;;;;5106345;28;20485;-69
2024/03/30 05:01:02;;;;;;;20.73;20.03;;;;;;;;;;5094465;28;20472;-71
2024/03/30 05:03:29;;;;;;;20.20;19.50;;;;;;;;;;5092068;28;20530;-70
2024/03/30 05:05:56;;;;;;;18.70;18.10;;;;;;;;;;5092379;28;20462;-70
2024/03/30 05:08:23;;;;;;;20.30;19.60;;;;;;;;;;5106448;28;20482;-70
2024/03/30 05:10:52;;;;;;;19.83;19.13;;;;;;;;;;5106362;28;21032;-71
2024/03/30 05:13:19;;;;;;;19.77;19.07;;;;;;;;;;5103272;28;20947;-71
2024/03/30 05:15:47;;;;;;;20.90;20.20;;;;;;;;;;5103417;28;20448;-71
2024/03/30 05:18:14;;;;;;;20.43;19.73;;;;;;;;;;5100499;28;20485;-70
2024/03/30 05:20:53;;;;;;;19.20;18.60;;;;;;;;;;5103684;28;20468;-71
2024/03/30 05:23:19;;;;;;;20.90;20.20;;;;;;;;;;5098851;28;20461;-71
2024/03/30 05:25:47;;;;;;;20.27;19.57;;;;;;;;;;5106243;28;20555;-71
2024/03/30 05:28:13;;;;;;;21.10;20.40;;;;;;;;;;5107951;28;21001;-70
2024/03/30 05:30:41;;;;;;;20.27;19.57;;;;;;;;;;5104486;28;20457;-71
2024/03/30 05:33:10;;;;;;;19.93;19.23;;;;;;;;;;5110042;28;20462;-72
2024/03/30 05:35:37;;;;;;;19.50;18.90;;;;;;;;;;5106220;28;20475;-70
2024/03/30 05:38:03;;;;;;;18.77;18.17;;;;;;;;;;5107299;28;20457;-71
2024/03/30 05:40:32;;;;;;;17.57;17.03;;;;;;;;;;5106170;28;20473;-71
2024/03/30 05:42:58;;;;;;;18.03;17.43;;;;;;;;;;5102124;28;20503;-71
2024/03/30 05:45:25;;;;;;;17.50;16.93;;;;;;;;;;5099920;28;20474;-71
2024/03/30 05:47:52;;;;;;;17.87;17.27;;;;;;;;;;5104435;28;20450;-71
2024/03/30 05:50:20;;;;;;;17.07;16.57;;;;;;;;;;5109887;28;20466;-72
2024/03/30 05:52:47;;;;;;;18.10;17.50;;;;;;;;;;5100938;28;20684;-70
2024/03/30 05:55:14;;;;;;;16.90;16.40;;;;;;;;;;5105073;28;21144;-70
2024/03/30 05:57:40;;;;;;;17.80;17.20;;;;;;;;;;5102689;28;20457;-72
2024/03/30 06:00:09;;;;;;;17.47;16.87;;;;;;;;;;5105770;28;20578;-71
2024/03/30 06:02:36;;;;;;;17.70;17.10;;;;;;;;;;5101849;27;20969;-71
2024/03/30 06:05:03;;;;;;;17.60;17.00;;;;;;;;;;5108325;28;20474;-71
2024/03/30 06:07:30;;;;;;;16.33;15.83;;;;;;;;;;5107897;28;20987;-71
2024/03/30 06:09:57;;;;;;;16.57;16.07;;;;;;;;;;5105990;28;20560;-72
2024/03/30 06:12:23;;;;;;;17.30;16.70;;;;;;;;;;5100679;28;20512;-71
2024/03/30 06:14:51;;;;;;;15.90;15.40;;;;;;;;;;5105497;27;20898;-72
2024/03/30 06:17:17;;;;;;;15.90;15.40;;;;;;;;;;5110845;27;20838;-71
2024/03/30 06:19:44;;;;;;;16.10;15.60;;;;;;;;;;5106898;27;20499;-68
2024/03/30 06:22:10;;;;;;;15.97;15.47;;;;;;;;;;5108905;28;20474;-69
2024/03/30 06:24:39;;;;;;;15.83;15.33;;;;;;;;;;5108710;28;20520;-69
2024/03/30 06:27:06;;;;;;;17.13;16.53;;;;;;;;;;5105994;28;20469;-69
2024/03/30 06:29:33;;;;;;;15.60;15.10;;;;;;;;;;5104395;28;20514;-68
2024/03/30 06:31:59;;;;;;;15.57;15.07;;;;;;;;;;5106470;28;20456;-72
2024/03/30 06:34:26;;;;;;;15.00;14.50;;;;;;;;;;5107276;28;20457;-72
2024/03/30 06:36:53;;;;;;;15.57;15.07;;;;;;;;;;5105590;27;20468;-71
2024/03/30 06:39:20;;;;;;;15.17;14.67;;;;;;;;;;5103197;28;20490;-71
2024/03/30 06:44:33;;;;;;;15.70;15.20;;;;;;;;;;5100444;27;20945;-71
2024/03/30 06:47:00;;;;;;;16.30;15.70;;;;;;;;;;5108366;28;20466;-70
2024/03/30 06:49:27;;;;;;;15.47;14.97;;;;;;;;;;5103451;27;20470;-71
2024/03/30 06:51:54;;;;;;;15.63;15.13;;;;;;;;;;5104982;28;20466;-71
2024/03/30 06:54:20;;;;;;;15.33;14.83;;;;;;;;;;5099318;28;20478;-69
2024/03/30 06:56:49;;;;;;;15.03;14.53;;;;;;;;;;5100112;28;20823;-69
2024/03/30 06:59:16;;;;;;;15.30;14.80;;;;;;;;;;5097636;28;20493;-69
2024/03/30 07:01:43;;;;;;;14.80;14.30;;;;;;;;;;5098053;28;21048;-68
2024/03/30 07:04:09;;;;;;;15.23;14.73;;;;;;;;;;5094003;28;20830;-69
2024/03/30 07:06:36;;;;;;;15.03;14.53;;;;;;;;;;5099168;28;20871;-69
2024/03/30 07:09:02;;;;;;;14.77;14.27;;;;;;;;;;5099393;28;20488;-69
2024/03/30 07:11:29;;;;;;;14.40;13.90;;;;;;;;;;5099173;28;20879;-67
2024/03/30 07:13:57;;;;;;;15.43;14.87;;;;;;;;;;5103452;28;20519;-68
2024/03/30 07:16:25;;;;;;;15.23;14.63;;;;;;;;;;5102529;27;20461;-67
2024/03/30 07:18:51;;;;;;;14.30;13.80;;;;;;;;;;5112426;27;20482;-69
2024/03/30 07:21:18;;;;;;;14.83;14.33;;;;;;;;;;5097833;28;20461;-70
2024/03/30 07:23:44;;;;;;;14.43;13.93;;;;;;;;;;5105902;28;20548;-71
2024/03/30 07:26:11;;;;;;;14.60;14.10;;;;;;;;;;5104076;27;20578;-71
2024/03/30 07:28:37;;;;;;;14.43;13.93;;;;;;;;;;5102298;28;20462;-72
2024/03/30 07:31:06;;;;;;;14.77;14.27;;;;;;;;;;5104911;27;21025;-71
2024/03/30 07:33:33;;;;;;;14.00;13.50;;;;;;;;;;5104627;27;20463;-71
2024/03/30 07:36:00;;;;;;;14.87;14.37;;;;;;;;;;5102541;28;20920;-71
2024/03/30 07:38:29;;;;;;;14.03;13.53;;;;;;;;;;5107575;28;20459;-72
2024/03/30 07:40:56;;;;;;;14.03;13.53;;;;;;;;;;5097877;28;20463;-71
2024/03/30 07:43:22;;;;;;;14.03;13.53;;;;;;;;;;5105926;28;20469;-71
2024/03/30 07:45:49;;;;;;;13.03;12.63;;;;;;;;;;5098555;28;20460;-71
2024/03/30 07:48:17;;;;;;;12.40;12.00;;;;;;;;;;5102212;28;20462;-71
2024/03/30 07:50:44;;;;;;;11.90;11.60;;;;;;;;;;5101186;28;20554;-71
2024/03/30 07:53:10;;;;;;;12.07;11.77;;;;;;;;;;5094116;28;20474;-72
2024/03/30 07:55:37;;;;;;;11.47;11.17;;;;;;;;;;5107422;28;20474;-71
2024/03/30 07:58:03;;;;;;;12.77;12.37;;;;;;;;;;5106624;28;20466;-71
2024/03/30 08:00:30;;;;;;;11.73;11.43;;;;;;;;;;5107508;28;20517;-70
2024/03/30 08:03:00;;;;;;;11.83;11.53;;;;;;;;;;5098709;28;20468;-72
2024/03/30 08:05:29;;;;;;;11.60;11.30;;;;;;;;;;5104993;28;20468;-70
2024/03/30 08:07:55;;;;;;;12.80;12.40;;;;;;;;;;5105294;28;20494;-71
2024/03/30 08:10:23;;;;;;;12.00;11.70;;;;;;;;;;5105162;28;20471;-72
2024/03/30 08:12:49;;;;;;;12.70;12.30;;;;;;;;;;5106440;28;20544;-71
2024/03/30 08:15:16;;;;;;;12.50;12.10;;;;;;;;;;5103645;28;20468;-71
2024/03/30 08:17:42;;;;;;;12.03;11.73;;;;;;;;;;5106968;28;20823;-70
2024/03/30 08:20:10;;;;;;;12.90;12.50;;;;;;;;;;5099442;28;21072;-71
2024/03/30 08:22:38;;;;;;;12.80;12.40;;;;;;;;;;5101030;28;20828;-71
2024/03/30 08:25:06;;;;;;;12.70;12.30;;;;;;;;;;5105278;28;20488;-71
2024/03/30 08:27:33;;;;;;;13.37;12.97;;;;;;;;;;5099198;28;20480;-71
2024/03/30 08:30:00;;;;;;;13.23;12.83;;;;;;;;;;5098345;28;20959;-72
2024/03/30 08:32:26;;;;;;;13.17;12.77;;;;;;;;;;5109705;28;20457;-72
2024/03/30 08:34:54;;;;;;;13.13;12.73;;;;;;;;;;5100596;28;20473;-71
2024/03/30 08:37:20;;;;;;;13.10;12.70;;;;;;;;;;5098456;28;20462;-72
2024/03/30 08:39:49;;;;;;;13.03;12.63;;;;;;;;;;5097467;28;20485;-70
2024/03/30 08:42:15;;;;;;;12.83;12.43;;;;;;;;;;5102083;28;20843;-71
2024/03/30 08:44:42;;;;;;;12.67;12.27;;;;;;;;;;5100429;28;20470;-72
2024/03/30 08:47:08;;;;;;;12.70;12.30;;;;;;;;;;5102936;28;20468;-72
2024/03/30 08:49:36;;;;;;;12.83;12.43;;;;;;;;;;5094547;28;20543;-70
2024/03/30 08:52:02;;;;;;;12.77;12.37;;;;;;;;;;5106207;28;20463;-71
2024/03/30 08:54:29;;;;;;;12.90;12.50;;;;;;;;;;5102892;28;20530;-71
2024/03/30 08:56:57;;;;;;;13.30;12.90;;;;;;;;;;5098077;28;20957;-71
2024/03/30 08:59:24;;;;;;;13.10;12.70;;;;;;;;;;5101182;28;20537;-71
2024/03/30 09:01:50;;;;;;;13.27;12.87;;;;;;;;;;5104944;28;20468;-72
2024/03/30 09:04:19;;;;;;;13.00;12.60;;;;;;;;;;5105179;27;20490;-71
2024/03/30 09:06:45;;;;;;;13.30;12.90;;;;;;;;;;5108758;28;20457;-71
2024/03/30 09:09:13;;;;;;;13.27;12.87;;;;;;;;;;5101072;28;20490;-71
2024/03/30 09:11:39;;;;;;;13.60;13.20;;;;;;;;;;5106571;28;20870;-73
2024/03/30 09:14:08;;;;;;;13.60;13.20;;;;;;;;;;5082967;28;20476;-71
2024/03/30 09:16:34;;;;;;;13.40;13.00;;;;;;;;;;5088662;28;20455;-72
2024/03/30 09:19:01;;;;;;;13.57;13.17;;;;;;;;;;5087631;28;20590;-72
2024/03/30 09:21:27;;;;;;;13.50;13.10;;;;;;;;;;5079133;28;20471;-71
2024/03/30 09:23:55;;;;;;;13.80;13.40;;;;;;;;;;5082515;28;20458;-72
2024/03/30 09:26:21;;;;;;;13.53;13.13;;;;;;;;;;5084515;28;20460;-71
2024/03/30 09:28:48;;;;;;;13.47;13.07;;;;;;;;;;5085838;28;20566;-69
2024/03/30 09:31:15;;;;;;;13.30;12.90;;;;;;;;;;5083349;28;20478;-69
2024/03/30 09:33:42;;;;;;;13.53;13.13;;;;;;;;;;5076232;28;20472;-69
2024/03/30 09:36:11;;;;;;;14.20;13.77;;;;;;;;;;5085084;28;20469;-69
2024/03/30 09:38:39;;;;;;;14.03;13.63;;;;;;;;;;5085976;28;20540;-69
2024/03/30 09:41:05;;;;;;;13.30;12.90;;;;;;;;;;5076884;28;20462;-70
2024/03/30 09:43:32;;;;;;;14.27;13.77;;;;;;;;;;5089420;28;20462;-69
2024/03/30 09:46:00;;;;;;;14.03;13.63;;;;;;;;;;5078137;28;20459;-69
2024/03/30 09:48:31;;;;;;;14.13;13.63;;;;;;;;;;5074133;28;20456;-69
2024/03/30 09:50:58;;;;;;;13.80;13.40;;;;;;;;;;5088777;28;20451;-70
2024/03/30 09:53:25;;;;;;;13.80;13.40;;;;;;;;;;5085408;28;20474;-69
2024/03/30 09:55:55;;;;;;;13.70;13.30;;;;;;;;;;5084288;28;20585;-70
2024/03/30 09:58:22;;;;;;;13.67;13.27;;;;;;;;;;5080651;28;20474;-69
2024/03/30 10:00:49;;;;;;;13.50;13.10;;;;;;;;;;5079412;28;21168;-70
2024/03/30 10:03:16;;;;;;;14.40;13.90;;;;;;;;;;5082190;28;20822;-70
2024/03/30 10:05:47;;;;;;;13.70;13.30;;;;;;;;;;5080575;28;20460;-71
2024/03/30 10:08:17;;;;;;;13.70;13.30;;;;;;;;;;5090975;28;20572;-70
2024/03/30 10:10:45;;;;;;;14.07;13.67;;;;;;;;;;5084838;28;20564;-69
2024/03/30 10:13:18;;;;;;;13.70;13.30;;;;;;;;;;5099585;28;20483;-73
2024/03/30 10:15:46;;;;;;;13.83;13.43;;;;;;;;;;5101940;28;20453;-72
2024/03/30 10:18:14;;;;;;;13.90;13.50;;;;;;;;;;5104430;28;20898;-71
2024/03/30 10:20:40;;;;;;;14.00;13.60;;;;;;;;;;5106085;28;20496;-71
2024/03/30 10:23:08;;;;;;;13.70;13.30;;;;;;;;;;5104767;28;20822;-71
2024/03/30 10:25:35;;;;;;;13.70;13.30;;;;;;;;;;5105636;28;20508;-71
2024/03/30 10:28:02;;;;;;;13.90;13.50;;;;;;;;;;5107286;28;20472;-70
2024/03/30 10:30:28;;;;;;;13.77;13.37;;;;;;;;;;5101080;28;20493;-72
2024/03/30 10:32:59;;;;;;;13.80;13.40;;;;;;;;;;5102403;28;20470;-72
2024/03/30 10:35:26;;;;;;;13.87;13.47;;;;;;;;;;5107948;28;20466;-70
2024/03/30 10:37:53;;;;;;;13.40;13.00;;;;;;;;;;5105202;28;20988;-71
2024/03/30 10:40:21;;;;;;;13.93;13.53;;;;;;;;;;5104916;28;20490;-72
2024/03/30 10:42:48;;;;;;;14.00;13.60;;;;;;;;;;5107693;28;21009;-72
2024/03/30 10:45:14;;;;;;;14.07;13.60;;;;;;;;;;5105480;28;20484;-71
2024/03/30 10:47:42;;;;;;;13.93;13.53;;;;;;;;;;5103812;28;20712;-72
2024/03/30 10:50:08;;;;;;;13.70;13.30;;;;;;;;;;5105707;28;20483;-72
2024/03/30 10:52:39;;;;;;;14.23;13.73;;;;;;;;;;5100738;28;20477;-73
2024/03/30 10:55:06;;;;;;;14.13;13.63;;;;;;;;;;5107554;28;20466;-72
2024/03/30 10:57:34;;;;;;;14.40;13.90;;;;;;;;;;5106214;27;21243;-71
2024/03/30 11:00:03;;;;;;;14.27;13.77;;;;;;;;;;5104029;27;20476;-73
2024/03/30 11:02:30;;;;;;;14.07;13.67;;;;;;;;;;5111450;27;20526;-70
2024/03/30 11:04:57;;;;;;;13.90;13.50;;;;;;;;;;5106258;27;20479;-71
2024/03/30 11:07:26;;;;;;;14.20;13.70;;;;;;;;;;5106915;27;20625;-71
2024/03/30 11:09:53;;;;;;;14.33;13.83;;;;;;;;;;5113882;27;21024;-72
2024/03/30 11:12:20;;;;;;;14.47;13.97;;;;;;;;;;5104080;27;20526;-70
2024/03/30 11:14:48;;;;;;;13.93;13.43;;;;;;;;;;5103056;27;20461;-69
2024/03/30 11:17:21;;;;;;;13.90;13.50;;;;;;;;;;5109677;27;20472;-68
2024/03/30 11:19:53;;;;;;;14.40;13.90;;;;;;;;;;5111779;27;20485;-70
2024/03/30 11:22:24;;;;;;;13.80;13.40;;;;;;;;;;5112599;27;20509;-70
2024/03/30 11:24:55;;;;;;;14.27;13.77;;;;;;;;;;5111610;27;20501;-69
2024/03/30 11:27:25;;;;;;;13.80;13.40;;;;;;;;;;5101565;27;20452;-70
2024/03/30 11:29:56;;;;;;;13.67;13.27;;;;;;;;;;5109812;27;20480;-68
2024/03/30 11:32:27;;;;;;;14.87;14.37;;;;;;;;;;5109064;27;20804;-69
2024/03/30 11:34:55;;;;;;;13.90;13.50;;;;;;;;;;5108508;27;20470;-69
2024/03/30 11:37:27;;;;;;;14.07;13.60;;;;;;;;;;5107586;27;20833;-71
2024/03/30 11:40:00;;;;;;;14.20;13.70;;;;;;;;;;5104105;27;20484;-71
2024/03/30 11:42:36;;;;;;;14.37;13.87;;;;;;;;;;5107662;27;20456;-69
2024/03/30 11:45:04;;;;;;;14.43;13.93;;;;;;;;;;5109473;27;20560;-71
2024/03/30 11:47:32;;;;;;;14.60;14.10;;;;;;;;;;5111224;27;21056;-70
2024/03/30 11:49:58;;;;;;;14.50;14.00;;;;;;;;;;5104209;27;20453;-70
2024/03/30 11:52:26;;;;;;;14.10;13.60;;;;;;;;;;5105189;27;20632;-69
2024/03/30 11:54:52;;;;;;;14.30;13.80;;;;;;;;;;5112535;27;20488;-70
2024/03/30 11:57:19;;;;;;;14.47;13.97;;;;;;;;;;5107738;27;20931;-70
2024/03/30 11:59:49;;;;;;;14.40;13.90;;;;;;;;;;5107396;27;20498;-70
2024/03/30 12:02:17;;;;;;;13.87;13.47;;;;;;;;;;5099321;27;20466;-71
2024/03/30 12:04:45;;;;;;;13.90;13.50;;;;;;;;;;5103762;27;20470;-71
2024/03/30 12:07:13;;;;;;;14.30;13.80;;;;;;;;;;5113410;27;20496;-70
2024/03/30 12:09:39;;;;;;;13.90;13.50;;;;;;;;;;5104528;27;20477;-69
2024/03/30 12:12:13;;;;;;;14.90;14.40;;;;;;;;;;5101835;27;20491;-71
2024/03/30 12:14:40;;;;;;;14.30;13.80;;;;;;;;;;5108045;27;20484;-69
2024/03/30 12:17:07;;;;;;;14.37;13.87;;;;;;;;;;5106976;28;20463;-69
2024/03/30 12:19:35;;;;;;;14.80;14.30;;;;;;;;;;5093233;28;20942;-72
2024/03/30 12:22:03;;;;;;;15.20;14.70;;;;;;;;;;5099426;28;20538;-73
2024/03/30 12:24:29;;;;;;;15.10;14.60;;;;;;;;;;5110279;28;20963;-72
2024/03/30 12:26:57;;;;;;;14.40;13.90;;;;;;;;;;5107796;28;20479;-72
2024/03/30 12:29:23;;;;;;;14.67;14.17;;;;;;;;;;5103205;28;20467;-73
2024/03/30 12:31:51;;;;;;;14.40;13.90;;;;;;;;;;5108541;28;21099;-73
2024/03/30 12:34:17;;;;;;;14.93;14.43;;;;;;;;;;5106777;28;20997;-73
2024/03/30 12:36:45;;;;;;;14.40;13.90;;;;;;;;;;5104474;27;20470;-70
2024/03/30 12:39:12;;;;;;;14.77;14.27;;;;;;;;;;5103471;27;20472;-72
2024/03/30 12:41:39;;;;;;;14.83;14.33;;;;;;;;;;5115167;27;20489;-73
2024/03/30 12:44:06;;;;;;;14.50;14.00;;;;;;;;;;5115941;27;20463;-72
2024/03/30 12:46:33;;;;;;;14.67;14.17;;;;;;;;;;5114246;27;20929;-71
2024/03/30 12:49:02;;;;;;;14.13;13.73;;;;;;;;;;5109742;27;20553;-72
2024/03/30 12:51:30;;;;;;;14.60;14.10;;;;;;;;;;5111152;27;20967;-71
2024/03/30 12:53:58;;;;;;;15.00;14.50;;;;;;;;;;5105450;27;20878;-70
2024/03/30 12:56:26;;;;;;;15.13;14.63;;;;;;;;;;5105285;27;20986;-72
2024/03/30 12:58:52;;;;;;;14.50;14.00;;;;;;;;;;5113491;27;20474;-71
2024/03/30 13:01:20;;;;;;;15.13;14.63;;;;;;;;;;5112492;27;20486;-71
2024/03/30 13:03:46;;;;;;;14.83;14.33;;;;;;;;;;5116860;27;20465;-72
2024/03/30 13:06:14;;;;;;;15.23;14.73;;;;;;;;;;5110264;27;20495;-71
2024/03/30 13:08:44;;;;;;;14.90;14.40;;;;;;;;;;5112305;27;21151;-71
2024/03/30 13:11:12;;;;;;;14.80;14.30;;;;;;;;;;5109503;27;20564;-71
2024/03/30 13:13:38;;;;;;;14.80;14.30;;;;;;;;;;5105204;27;20486;-71
2024/03/30 13:16:06;;;;;;;14.60;14.10;;;;;;;;;;5105939;27;20516;-69
2024/03/30 13:18:33;;;;;;;14.40;13.90;;;;;;;;;;5110160;27;20467;-72
2024/03/30 13:21:03;;;;;;;14.30;13.80;;;;;;;;;;5112463;27;20584;-69
2024/03/30 13:23:31;;;;;;;13.90;13.50;;;;;;;;;;5111380;27;20473;-72
2024/03/30 13:25:58;;;;;;;14.40;14.00;;;;;;;;;;5102415;27;21853;-70
2024/03/30 13:28:25;;;;;;;14.90;14.40;;;;;;;;;;5104100;27;20459;-71
2024/03/30 13:30:54;;;;;;;14.83;14.33;;;;;;;;;;5110030;27;20470;-71
2024/03/30 13:33:20;;;;;;;14.40;13.90;;;;;;;;;;5112003;27;20545;-70
2024/03/30 13:35:47;;;;;;;14.50;14.00;;;;;;;;;;5115078;27;20461;-71
2024/03/30 13:38:14;;;;;;;14.40;13.90;;;;;;;;;;5112123;27;20461;-71
2024/03/30 13:40:41;;;;;;;14.30;13.80;;;;;;;;;;5113580;27;20493;-70
2024/03/30 13:43:08;;;;;;;14.40;13.90;;;;;;;;;;5108351;27;20456;-71
2024/03/30 13:45:36;;;;;;;14.70;14.20;;;;;;;;;;5113265;27;20494;-71
2024/03/30 13:48:03;;;;;;;14.87;14.37;;;;;;;;;;5111655;27;20471;-71
2024/03/30 13:50:30;;;;;;;14.60;14.10;;;;;;;;;;5115681;27;20462;-70
2024/03/30 13:52:56;;;;;;;14.67;14.17;;;;;;;;;;5111097;27;20473;-69
2024/03/30 13:55:24;;;;;;;14.50;14.00;;;;;;;;;;5114680;27;20866;-70
2024/03/30 13:57:52;;;;;;;15.10;14.60;;;;;;;;;;5111074;27;20545;-70
2024/03/30 14:00:19;;;;;;;14.90;14.40;;;;;;;;;;5107072;27;20492;-70
2024/03/30 14:02:47;;;;;;;15.13;14.63;;;;;;;;;;5112365;27;20915;-70
2024/03/30 14:05:13;;;;;;;15.00;14.50;;;;;;;;;;5114285;27;20473;-70
2024/03/30 14:07:41;;;;;;;14.90;14.40;;;;;;;;;;5114624;27;20536;-71
2024/03/30 14:10:07;;;;;;;14.90;14.40;;;;;;;;;;5114095;27;20463;-70
2024/03/30 14:12:34;;;;;;;14.97;14.47;;;;;;;;;;5110164;27;20998;-71
2024/03/30 14:15:03;;;;;;;14.90;14.40;;;;;;;;;;5103910;27;20456;-71
2024/03/30 14:17:31;;;;;;;14.70;14.20;;;;;;;;;;5114683;27;20464;-69
2024/03/30 14:19:59;;;;;;;14.20;13.80;;;;;;;;;;5110307;27;20929;-70